TW-0018 weather

Nan-Gang Police District Helipad
Taipei, Taipei (municipality), Taiwan

Public forecast

Using degrees Celsius for public forecast. Weather courtesy of forecast.io.

Closest aviation weather report (METAR) to Nan-Gang Police District Helipad

Closest report is Taipei Songshan Airport, 2.5 nm (4.6 km) WNW. Retrieved 2020/06/06 11:39 UTC (21 minutes ago):

RCSS 061139Z 30008KT 9999 FEW020 BKN028 BKN120 30/26 Q1006 NOSIG RMK A2971

Closest aviation forecast (TAF) to Nan-Gang Police District Helipad

Closest forecast is Taipei Songshan Airport, 2.5 nm (4.6 km) WNW. Retrieved 2020/06/06 06:00 UTC (6 hours ago):

TAF RCSS 060500Z 0606/0706 24010KT 9999 FEW012 BKN032 TEMPO 0606/0610 27015KT 4000 SHRA SCT006 BKN012 FEW015CB TEMPO 0618/0624 31005KT TEMPO 0704/0706 3500 TSRA SCT005 BKN010 FEW012CB